sensor_id;sensor_type;location;lat;lon;timestamp;temperature;humidity
48579;DHT22;34357;51.948;6.132;2023-05-29T00:00:50;12.00;77.40
48579;DHT22;34357;51.948;6.132;2023-05-29T00:03:31;11.90;77.50
48579;DHT22;34357;51.948;6.132;2023-05-29T00:05:58;11.90;77.60
48579;DHT22;34357;51.948;6.132;2023-05-29T00:08:24;11.90;77.50
48579;DHT22;34357;51.948;6.132;2023-05-29T00:10:50;11.80;77.80
48579;DHT22;34357;51.948;6.132;2023-05-29T00:13:15;11.80;77.90
48579;DHT22;34357;51.948;6.132;2023-05-29T00:15:41;11.80;78.20
48579;DHT22;34357;51.948;6.132;2023-05-29T00:18:06;11.70;77.90
48579;DHT22;34357;51.948;6.132;2023-05-29T00:20:32;11.60;78.30
48579;DHT22;34357;51.948;6.132;2023-05-29T00:22:59;11.60;78.40
48579;DHT22;34357;51.948;6.132;2023-05-29T00:25:27;11.50;78.30
48579;DHT22;34357;51.948;6.132;2023-05-29T00:27:52;11.50;78.50
48579;DHT22;34357;51.948;6.132;2023-05-29T00:30:18;11.40;78.90
48579;DHT22;34357;51.948;6.132;2023-05-29T00:32:44;11.40;78.90
48579;DHT22;34357;51.948;6.132;2023-05-29T00:35:11;11.40;79.40
48579;DHT22;34357;51.948;6.132;2023-05-29T00:37:37;11.40;79.20
48579;DHT22;34357;51.948;6.132;2023-05-29T00:40:03;11.30;79.20
48579;DHT22;34357;51.948;6.132;2023-05-29T00:42:29;11.30;79.30
48579;DHT22;34357;51.948;6.132;2023-05-29T00:44:55;11.30;79.30
48579;DHT22;34357;51.948;6.132;2023-05-29T00:47:21;11.20;79.50
48579;DHT22;34357;51.948;6.132;2023-05-29T00:49:47;11.20;79.80
48579;DHT22;34357;51.948;6.132;2023-05-29T00:52:14;11.20;79.80
48579;DHT22;34357;51.948;6.132;2023-05-29T00:54:43;11.10;79.90
48579;DHT22;34357;51.948;6.132;2023-05-29T00:57:10;11.00;80.20
48579;DHT22;34357;51.948;6.132;2023-05-29T00:59:37;11.00;80.40
48579;DHT22;34357;51.948;6.132;2023-05-29T01:02:03;11.00;80.60
48579;DHT22;34357;51.948;6.132;2023-05-29T01:04:30;10.90;80.60
48579;DHT22;34357;51.948;6.132;2023-05-29T01:07:00;10.90;80.40
48579;DHT22;34357;51.948;6.132;2023-05-29T01:09:26;10.90;80.40
48579;DHT22;34357;51.948;6.132;2023-05-29T01:21:06;10.80;80.80
48579;DHT22;34357;51.948;6.132;2023-05-29T01:23:47;10.80;80.70
48579;DHT22;34357;51.948;6.132;2023-05-29T01:28:46;10.80;81.10
48579;DHT22;34357;51.948;6.132;2023-05-29T01:31:13;10.80;80.90
48579;DHT22;34357;51.948;6.132;2023-05-29T01:33:40;10.80;81.40
48579;DHT22;34357;51.948;6.132;2023-05-29T01:36:09;10.70;81.00
48579;DHT22;34357;51.948;6.132;2023-05-29T01:38:36;10.70;81.30
48579;DHT22;34357;51.948;6.132;2023-05-29T01:41:03;10.70;81.40
48579;DHT22;34357;51.948;6.132;2023-05-29T01:43:29;10.60;81.40
48579;DHT22;34357;51.948;6.132;2023-05-29T01:45:55;10.60;81.30
48579;DHT22;34357;51.948;6.132;2023-05-29T01:48:22;10.60;81.60
48579;DHT22;34357;51.948;6.132;2023-05-29T01:50:48;10.60;81.80
48579;DHT22;34357;51.948;6.132;2023-05-29T01:53:16;10.60;81.50
48579;DHT22;34357;51.948;6.132;2023-05-29T01:55:42;10.50;81.50
48579;DHT22;34357;51.948;6.132;2023-05-29T01:58:07;10.50;81.80
48579;DHT22;34357;51.948;6.132;2023-05-29T02:00:34;10.50;81.80
48579;DHT22;34357;51.948;6.132;2023-05-29T02:03:00;10.50;82.00
48579;DHT22;34357;51.948;6.132;2023-05-29T02:05:27;10.40;81.80
48579;DHT22;34357;51.948;6.132;2023-05-29T02:07:53;10.40;82.30
48579;DHT22;34357;51.948;6.132;2023-05-29T02:10:19;10.40;82.30
48579;DHT22;34357;51.948;6.132;2023-05-29T02:12:45;10.40;82.10
48579;DHT22;34357;51.948;6.132;2023-05-29T02:15:10;10.40;82.30
48579;DHT22;34357;51.948;6.132;2023-05-29T02:17:36;10.30;82.50
48579;DHT22;34357;51.948;6.132;2023-05-29T02:20:02;10.40;82.50
48579;DHT22;34357;51.948;6.132;2023-05-29T02:22:30;10.30;82.50
48579;DHT22;34357;51.948;6.132;2023-05-29T02:24:58;10.30;82.60
48579;DHT22;34357;51.948;6.132;2023-05-29T02:27:23;10.20;82.70
48579;DHT22;34357;51.948;6.132;2023-05-29T02:29:49;10.20;82.60
48579;DHT22;34357;51.948;6.132;2023-05-29T02:32:15;10.20;82.70
48579;DHT22;34357;51.948;6.132;2023-05-29T02:34:41;10.20;82.70
48579;DHT22;34357;51.948;6.132;2023-05-29T02:37:06;10.20;82.50
48579;DHT22;34357;51.948;6.132;2023-05-29T02:39:32;10.20;82.50
48579;DHT22;34357;51.948;6.132;2023-05-29T02:41:58;10.20;82.60
48579;DHT22;34357;51.948;6.132;2023-05-29T02:44:23;10.10;82.70
48579;DHT22;34357;51.948;6.132;2023-05-29T02:46:50;10.10;82.70
48579;DHT22;34357;51.948;6.132;2023-05-29T02:49:16;10.00;82.90
48579;DHT22;34357;51.948;6.132;2023-05-29T02:51:41;9.90;83.10
48579;DHT22;34357;51.948;6.132;2023-05-29T02:54:07;9.90;83.10
48579;DHT22;34357;51.948;6.132;2023-05-29T02:56:33;9.90;83.20
48579;DHT22;34357;51.948;6.132;2023-05-29T02:58:59;9.90;83.30
48579;DHT22;34357;51.948;6.132;2023-05-29T03:01:25;9.90;83.10
48579;DHT22;34357;51.948;6.132;2023-05-29T03:03:53;9.90;83.20
48579;DHT22;34357;51.948;6.132;2023-05-29T03:06:19;9.90;83.20
48579;DHT22;34357;51.948;6.132;2023-05-29T03:08:45;9.90;83.20
48579;DHT22;34357;51.948;6.132;2023-05-29T03:11:12;9.80;83.50
48579;DHT22;34357;51.948;6.132;2023-05-29T03:13:39;9.80;83.30
48579;DHT22;34357;51.948;6.132;2023-05-29T03:16:07;9.80;83.50
48579;DHT22;34357;51.948;6.132;2023-05-29T03:18:35;9.80;83.50
48579;DHT22;34357;51.948;6.132;2023-05-29T03:21:01;9.80;83.20
48579;DHT22;34357;51.948;6.132;2023-05-29T03:23:27;9.70;83.30
48579;DHT22;34357;51.948;6.132;2023-05-29T03:25:53;9.70;83.60
48579;DHT22;34357;51.948;6.132;2023-05-29T03:28:19;9.70;83.80
48579;DHT22;34357;51.948;6.132;2023-05-29T03:30:46;9.70;83.70
48579;DHT22;34357;51.948;6.132;2023-05-29T03:33:14;9.70;83.60
48579;DHT22;34357;51.948;6.132;2023-05-29T03:35:57;9.70;83.70
48579;DHT22;34357;51.948;6.132;2023-05-29T03:38:23;9.60;83.90
48579;DHT22;34357;51.948;6.132;2023-05-29T03:40:49;9.60;83.90
48579;DHT22;34357;51.948;6.132;2023-05-29T03:43:14;9.60;84.00
48579;DHT22;34357;51.948;6.132;2023-05-29T03:45:41;9.60;83.90
48579;DHT22;34357;51.948;6.132;2023-05-29T03:48:07;9.60;83.80
48579;DHT22;34357;51.948;6.132;2023-05-29T03:50:33;9.60;83.60
48579;DHT22;34357;51.948;6.132;2023-05-29T03:52:58;9.60;83.70
48579;DHT22;34357;51.948;6.132;2023-05-29T03:55:26;9.50;83.70
48579;DHT22;34357;51.948;6.132;2023-05-29T03:57:52;9.60;83.80
48579;DHT22;34357;51.948;6.132;2023-05-29T04:00:18;9.60;83.50
48579;DHT22;34357;51.948;6.132;2023-05-29T04:02:46;9.60;83.70
48579;DHT22;34357;51.948;6.132;2023-05-29T04:05:11;9.50;83.40
48579;DHT22;34357;51.948;6.132;2023-05-29T04:07:41;9.60;83.60
48579;DHT22;34357;51.948;6.132;2023-05-29T04:10:08;9.60;83.50
48579;DHT22;34357;51.948;6.132;2023-05-29T04:12:34;9.50;83.50
48579;DHT22;34357;51.948;6.132;2023-05-29T04:15:00;9.50;83.40
48579;DHT22;34357;51.948;6.132;2023-05-29T04:17:26;9.50;83.10
48579;DHT22;34357;51.948;6.132;2023-05-29T04:19:52;9.70;83.40
48579;DHT22;34357;51.948;6.132;2023-05-29T04:22:18;9.60;82.90
48579;DHT22;34357;51.948;6.132;2023-05-29T04:24:45;9.60;83.10
48579;DHT22;34357;51.948;6.132;2023-05-29T04:27:11;9.70;82.90
48579;DHT22;34357;51.948;6.132;2023-05-29T04:29:43;9.60;82.90
48579;DHT22;34357;51.948;6.132;2023-05-29T04:32:09;9.60;82.80
48579;DHT22;34357;51.948;6.132;2023-05-29T04:34:38;9.70;82.90
48579;DHT22;34357;51.948;6.132;2023-05-29T04:37:13;9.70;83.20
48579;DHT22;34357;51.948;6.132;2023-05-29T04:39:40;9.70;82.90
48579;DHT22;34357;51.948;6.132;2023-05-29T04:42:06;9.70;83.00
48579;DHT22;34357;51.948;6.132;2023-05-29T04:44:34;9.70;82.70
48579;DHT22;34357;51.948;6.132;2023-05-29T04:46:59;9.70;82.90
48579;DHT22;34357;51.948;6.132;2023-05-29T04:49:29;9.70;82.90
48579;DHT22;34357;51.948;6.132;2023-05-29T04:51:55;9.70;83.00
48579;DHT22;34357;51.948;6.132;2023-05-29T04:54:22;9.80;82.80
48579;DHT22;34357;51.948;6.132;2023-05-29T04:56:51;9.80;82.70
48579;DHT22;34357;51.948;6.132;2023-05-29T04:59:19;9.90;82.70
48579;DHT22;34357;51.948;6.132;2023-05-29T05:01:45;9.90;82.20
48579;DHT22;34357;51.948;6.132;2023-05-29T05:04:11;9.90;82.30
48579;DHT22;34357;51.948;6.132;2023-05-29T05:06:37;9.90;82.30
48579;DHT22;34357;51.948;6.132;2023-05-29T05:09:03;9.90;82.10
48579;DHT22;34357;51.948;6.132;2023-05-29T05:11:29;9.90;81.70
48579;DHT22;34357;51.948;6.132;2023-05-29T05:13:55;9.90;81.70
48579;DHT22;34357;51.948;6.132;2023-05-29T05:16:21;10.00;81.60
48579;DHT22;34357;51.948;6.132;2023-05-29T05:18:47;10.10;81.60
48579;DHT22;34357;51.948;6.132;2023-05-29T05:21:13;10.10;81.30
48579;DHT22;34357;51.948;6.132;2023-05-29T05:23:40;10.10;81.10
48579;DHT22;34357;51.948;6.132;2023-05-29T05:26:08;10.20;81.00
48579;DHT22;34357;51.948;6.132;2023-05-29T05:28:35;10.20;81.00
48579;DHT22;34357;51.948;6.132;2023-05-29T05:31:01;10.30;80.80
48579;DHT22;34357;51.948;6.132;2023-05-29T05:33:30;10.40;80.50
48579;DHT22;34357;51.948;6.132;2023-05-29T05:35:56;10.50;80.00
48579;DHT22;34357;51.948;6.132;2023-05-29T05:38:22;10.50;79.80
48579;DHT22;34357;51.948;6.132;2023-05-29T05:40:47;10.70;79.30
48579;DHT22;34357;51.948;6.132;2023-05-29T05:43:21;10.80;79.30
48579;DHT22;34357;51.948;6.132;2023-05-29T05:46:06;10.80;78.70
48579;DHT22;34357;51.948;6.132;2023-05-29T05:48:33;10.90;78.70
48579;DHT22;34357;51.948;6.132;2023-05-29T05:50:59;10.90;78.60
48579;DHT22;34357;51.948;6.132;2023-05-29T05:53:25;11.00;78.20
48579;DHT22;34357;51.948;6.132;2023-05-29T05:55:51;11.10;78.20
48579;DHT22;34357;51.948;6.132;2023-05-29T05:58:17;11.30;76.70
48579;DHT22;34357;51.948;6.132;2023-05-29T06:00:43;11.30;77.20
48579;DHT22;34357;51.948;6.132;2023-05-29T06:03:09;11.40;76.70
48579;DHT22;34357;51.948;6.132;2023-05-29T06:05:51;11.50;76.10
48579;DHT22;34357;51.948;6.132;2023-05-29T06:08:18;11.70;75.60
48579;DHT22;34357;51.948;6.132;2023-05-29T06:10:43;11.70;75.50
48579;DHT22;34357;51.948;6.132;2023-05-29T06:13:09;11.80;75.00
48579;DHT22;34357;51.948;6.132;2023-05-29T06:15:44;11.90;74.80
48579;DHT22;34357;51.948;6.132;2023-05-29T06:18:10;11.80;74.40
48579;DHT22;34357;51.948;6.132;2023-05-29T06:20:37;11.90;74.60
48579;DHT22;34357;51.948;6.132;2023-05-29T06:23:03;12.10;73.80
48579;DHT22;34357;51.948;6.132;2023-05-29T06:25:30;12.20;73.30
48579;DHT22;34357;51.948;6.132;2023-05-29T06:28:00;12.20;73.20
48579;DHT22;34357;51.948;6.132;2023-05-29T06:30:26;12.40;72.50
48579;DHT22;34357;51.948;6.132;2023-05-29T06:32:52;12.60;71.70
48579;DHT22;34357;51.948;6.132;2023-05-29T06:35:23;12.60;71.70
48579;DHT22;34357;51.948;6.132;2023-05-29T06:37:48;12.70;72.00
48579;DHT22;34357;51.948;6.132;2023-05-29T06:40:14;12.80;70.10
48579;DHT22;34357;51.948;6.132;2023-05-29T06:42:42;12.80;69.60
48579;DHT22;34357;51.948;6.132;2023-05-29T06:45:13;12.80;69.90
48579;DHT22;34357;51.948;6.132;2023-05-29T06:47:40;12.90;70.00
48579;DHT22;34357;51.948;6.132;2023-05-29T06:50:07;13.20;69.00
48579;DHT22;34357;51.948;6.132;2023-05-29T06:52:33;13.40;68.50
48579;DHT22;34357;51.948;6.132;2023-05-29T06:55:22;13.60;68.60
48579;DHT22;34357;51.948;6.132;2023-05-29T06:57:48;14.40;65.30
48579;DHT22;34357;51.948;6.132;2023-05-29T07:00:15;14.60;62.90
48579;DHT22;34357;51.948;6.132;2023-05-29T07:02:48;14.90;63.20
48579;DHT22;34357;51.948;6.132;2023-05-29T07:05:14;15.30;61.20
48579;DHT22;34357;51.948;6.132;2023-05-29T07:07:41;15.90;60.40
48579;DHT22;34357;51.948;6.132;2023-05-29T07:10:09;16.40;57.80
48579;DHT22;34357;51.948;6.132;2023-05-29T07:12:35;16.50;57.40
48579;DHT22;34357;51.948;6.132;2023-05-29T07:15:00;16.70;56.30
48579;DHT22;34357;51.948;6.132;2023-05-29T07:17:26;16.30;57.80
48579;DHT22;34357;51.948;6.132;2023-05-29T07:20:03;16.40;57.70
48579;DHT22;34357;51.948;6.132;2023-05-29T07:22:34;16.70;57.30
48579;DHT22;34357;51.948;6.132;2023-05-29T07:25:00;16.80;56.00
48579;DHT22;34357;51.948;6.132;2023-05-29T07:27:27;16.90;56.80
48579;DHT22;34357;51.948;6.132;2023-05-29T07:29:53;17.30;56.70
48579;DHT22;34357;51.948;6.132;2023-05-29T07:32:19;17.60;54.10
48579;DHT22;34357;51.948;6.132;2023-05-29T07:34:44;17.50;53.60
48579;DHT22;34357;51.948;6.132;2023-05-29T07:37:11;17.10;54.50
48579;DHT22;34357;51.948;6.132;2023-05-29T07:39:38;17.70;52.60
48579;DHT22;34357;51.948;6.132;2023-05-29T07:42:29;17.60;52.60
48579;DHT22;34357;51.948;6.132;2023-05-29T07:44:55;17.40;53.40
48579;DHT22;34357;51.948;6.132;2023-05-29T07:47:22;17.10;54.70
48579;DHT22;34357;51.948;6.132;2023-05-29T07:49:48;17.60;54.90
48579;DHT22;34357;51.948;6.132;2023-05-29T07:52:13;17.80;52.40
48579;DHT22;34357;51.948;6.132;2023-05-29T07:54:40;17.50;54.20
48579;DHT22;34357;51.948;6.132;2023-05-29T07:57:08;17.30;54.50
48579;DHT22;34357;51.948;6.132;2023-05-29T07:59:40;17.70;52.60
48579;DHT22;34357;51.948;6.132;2023-05-29T08:02:07;17.90;52.40
48579;DHT22;34357;51.948;6.132;2023-05-29T08:04:53;17.90;53.60
48579;DHT22;34357;51.948;6.132;2023-05-29T08:07:19;18.20;53.10
48579;DHT22;34357;51.948;6.132;2023-05-29T08:09:44;17.40;53.20
48579;DHT22;34357;51.948;6.132;2023-05-29T08:12:10;17.30;55.20
48579;DHT22;34357;51.948;6.132;2023-05-29T08:14:36;17.10;55.70
48579;DHT22;34357;51.948;6.132;2023-05-29T08:17:02;16.80;55.10
48579;DHT22;34357;51.948;6.132;2023-05-29T08:19:28;16.90;55.70
48579;DHT22;34357;51.948;6.132;2023-05-29T08:21:54;17.30;55.80
48579;DHT22;34357;51.948;6.132;2023-05-29T08:24:20;18.00;52.40
48579;DHT22;34357;51.948;6.132;2023-05-29T08:26:46;18.20;51.10
48579;DHT22;34357;51.948;6.132;2023-05-29T08:29:11;18.20;51.30
48579;DHT22;34357;51.948;6.132;2023-05-29T08:31:37;18.30;51.20
48579;DHT22;34357;51.948;6.132;2023-05-29T08:34:03;17.90;52.10
48579;DHT22;34357;51.948;6.132;2023-05-29T08:36:29;18.20;52.70
48579;DHT22;34357;51.948;6.132;2023-05-29T08:38:54;18.20;52.30
48579;DHT22;34357;51.948;6.132;2023-05-29T08:43:52;18.40;51.90
48579;DHT22;34357;51.948;6.132;2023-05-29T08:46:19;18.20;50.40
48579;DHT22;34357;51.948;6.132;2023-05-29T08:48:49;18.20;51.10
48579;DHT22;34357;51.948;6.132;2023-05-29T08:51:20;18.40;51.40
48579;DHT22;34357;51.948;6.132;2023-05-29T08:53:47;18.20;51.30
48579;DHT22;34357;51.948;6.132;2023-05-29T08:56:13;18.30;50.70
48579;DHT22;34357;51.948;6.132;2023-05-29T08:58:39;18.20;51.60
48579;DHT22;34357;51.948;6.132;2023-05-29T09:01:05;18.00;51.30
48579;DHT22;34357;51.948;6.132;2023-05-29T09:03:31;18.20;51.00
48579;DHT22;34357;51.948;6.132;2023-05-29T09:06:00;18.40;51.70
48579;DHT22;34357;51.948;6.132;2023-05-29T09:08:29;18.70;50.20
48579;DHT22;34357;51.948;6.132;2023-05-29T09:10:55;18.70;51.40
48579;DHT22;34357;51.948;6.132;2023-05-29T09:13:22;18.60;49.30
48579;DHT22;34357;51.948;6.132;2023-05-29T09:15:48;18.30;50.80
48579;DHT22;34357;51.948;6.132;2023-05-29T09:18:16;18.60;49.30
48579;DHT22;34357;51.948;6.132;2023-05-29T09:20:43;18.80;50.10
48579;DHT22;34357;51.948;6.132;2023-05-29T09:23:09;18.80;50.70
48579;DHT22;34357;51.948;6.132;2023-05-29T09:25:40;18.90;49.50
48579;DHT22;34357;51.948;6.132;2023-05-29T09:28:08;18.90;49.90
48579;DHT22;34357;51.948;6.132;2023-05-29T09:30:44;19.00;48.30
48579;DHT22;34357;51.948;6.132;2023-05-29T09:33:13;18.70;50.30
48579;DHT22;34357;51.948;6.132;2023-05-29T09:35:40;18.80;48.60
48579;DHT22;34357;51.948;6.132;2023-05-29T09:38:08;18.60;50.90
48579;DHT22;34357;51.948;6.132;2023-05-29T09:40:35;19.10;50.10
48579;DHT22;34357;51.948;6.132;2023-05-29T09:43:19;19.10;48.90
48579;DHT22;34357;51.948;6.132;2023-05-29T09:45:49;19.30;49.90
48579;DHT22;34357;51.948;6.132;2023-05-29T09:48:17;19.70;49.40
48579;DHT22;34357;51.948;6.132;2023-05-29T09:50:44;20.00;48.70
48579;DHT22;34357;51.948;6.132;2023-05-29T09:55:46;19.90;49.10
48579;DHT22;34357;51.948;6.132;2023-05-29T09:58:14;19.90;46.80
48579;DHT22;34357;51.948;6.132;2023-05-29T10:00:42;19.70;47.50
48579;DHT22;34357;51.948;6.132;2023-05-29T10:03:09;19.40;49.10
48579;DHT22;34357;51.948;6.132;2023-05-29T10:05:35;19.30;49.20
48579;DHT22;34357;51.948;6.132;2023-05-29T10:08:03;19.50;48.20
48579;DHT22;34357;51.948;6.132;2023-05-29T10:10:31;19.50;48.20
48579;DHT22;34357;51.948;6.132;2023-05-29T10:12:59;19.50;50.00
48579;DHT22;34357;51.948;6.132;2023-05-29T10:15:30;19.70;48.20
48579;DHT22;34357;51.948;6.132;2023-05-29T10:18:03;19.90;48.30
48579;DHT22;34357;51.948;6.132;2023-05-29T10:20:31;20.00;46.70
48579;DHT22;34357;51.948;6.132;2023-05-29T10:23:00;19.60;47.90
48579;DHT22;34357;51.948;6.132;2023-05-29T10:25:29;19.20;49.00
48579;DHT22;34357;51.948;6.132;2023-05-29T10:27:57;19.10;49.80
48579;DHT22;34357;51.948;6.132;2023-05-29T10:30:33;18.70;50.60
48579;DHT22;34357;51.948;6.132;2023-05-29T10:36:14;19.00;51.00
48579;DHT22;34357;51.948;6.132;2023-05-29T10:38:44;18.70;50.60
48579;DHT22;34357;51.948;6.132;2023-05-29T10:43:54;19.50;49.40
48579;DHT22;34357;51.948;6.132;2023-05-29T10:46:20;19.60;49.20
48579;DHT22;34357;51.948;6.132;2023-05-29T10:48:49;19.20;49.40
48579;DHT22;34357;51.948;6.132;2023-05-29T10:51:41;19.10;50.60
48579;DHT22;34357;51.948;6.132;2023-05-29T10:54:07;19.60;49.30
48579;DHT22;34357;51.948;6.132;2023-05-29T10:56:33;19.80;47.10
48579;DHT22;34357;51.948;6.132;2023-05-29T10:59:00;20.00;46.40
48579;DHT22;34357;51.948;6.132;2023-05-29T11:01:30;20.00;47.70
48579;DHT22;34357;51.948;6.132;2023-05-29T11:06:44;19.60;47.70
48579;DHT22;34357;51.948;6.132;2023-05-29T11:09:27;19.90;48.50
48579;DHT22;34357;51.948;6.132;2023-05-29T11:14:56;19.70;46.20
48579;DHT22;34357;51.948;6.132;2023-05-29T11:17:42;19.50;46.40
48579;DHT22;34357;51.948;6.132;2023-05-29T11:22:56;19.60;44.90
48579;DHT22;34357;51.948;6.132;2023-05-29T11:25:26;19.20;44.80
48579;DHT22;34357;51.948;6.132;2023-05-29T11:27:52;19.40;45.40
48579;DHT22;34357;51.948;6.132;2023-05-29T11:30:19;19.50;46.00
48579;DHT22;34357;51.948;6.132;2023-05-29T11:32:46;19.50;48.80
48579;DHT22;34357;51.948;6.132;2023-05-29T11:35:13;19.70;45.60
48579;DHT22;34357;51.948;6.132;2023-05-29T11:37:42;19.80;45.50
48579;DHT22;34357;51.948;6.132;2023-05-29T11:40:12;20.10;45.30
48579;DHT22;34357;51.948;6.132;2023-05-29T11:42:47;20.00;44.90
48579;DHT22;34357;51.948;6.132;2023-05-29T11:45:20;19.90;44.20
48579;DHT22;34357;51.948;6.132;2023-05-29T11:47:54;19.90;42.50
48579;DHT22;34357;51.948;6.132;2023-05-29T11:50:24;20.10;42.60
48579;DHT22;34357;51.948;6.132;2023-05-29T11:52:50;20.00;42.70
48579;DHT22;34357;51.948;6.132;2023-05-29T11:55:19;19.70;43.70
48579;DHT22;34357;51.948;6.132;2023-05-29T11:57:50;19.60;44.80
48579;DHT22;34357;51.948;6.132;2023-05-29T12:00:17;19.80;42.60
48579;DHT22;34357;51.948;6.132;2023-05-29T12:02:44;19.50;43.60
48579;DHT22;34357;51.948;6.132;2023-05-29T12:05:14;19.50;44.10
48579;DHT22;34357;51.948;6.132;2023-05-29T12:07:52;19.60;44.10
48579;DHT22;34357;51.948;6.132;2023-05-29T12:10:19;19.60;43.40
48579;DHT22;34357;51.948;6.132;2023-05-29T12:12:59;19.90;42.70
48579;DHT22;34357;51.948;6.132;2023-05-29T12:15:28;20.00;42.50
48579;DHT22;34357;51.948;6.132;2023-05-29T12:17:55;20.00;41.50
48579;DHT22;34357;51.948;6.132;2023-05-29T12:20:24;20.00;40.50
48579;DHT22;34357;51.948;6.132;2023-05-29T12:22:54;20.00;40.10
48579;DHT22;34357;51.948;6.132;2023-05-29T12:25:25;20.00;40.80
48579;DHT22;34357;51.948;6.132;2023-05-29T12:27:50;20.00;41.10
48579;DHT22;34357;51.948;6.132;2023-05-29T12:30:21;20.10;41.90
48579;DHT22;34357;51.948;6.132;2023-05-29T12:32:51;19.90;42.50
48579;DHT22;34357;51.948;6.132;2023-05-29T12:35:19;19.80;41.40
48579;DHT22;34357;51.948;6.132;2023-05-29T12:37:47;19.90;40.40
48579;DHT22;34357;51.948;6.132;2023-05-29T12:40:20;20.40;42.10
48579;DHT22;34357;51.948;6.132;2023-05-29T12:42:47;20.20;41.50
48579;DHT22;34357;51.948;6.132;2023-05-29T12:45:14;20.00;41.60
48579;DHT22;34357;51.948;6.132;2023-05-29T12:50:26;20.50;38.90
48579;DHT22;34357;51.948;6.132;2023-05-29T12:53:15;20.50;40.00
48579;DHT22;34357;51.948;6.132;2023-05-29T12:55:43;20.20;40.40
48579;DHT22;34357;51.948;6.132;2023-05-29T12:58:14;20.10;40.70
48579;DHT22;34357;51.948;6.132;2023-05-29T13:00:42;20.20;39.50
48579;DHT22;34357;51.948;6.132;2023-05-29T13:03:08;20.20;38.80
48579;DHT22;34357;51.948;6.132;2023-05-29T13:05:36;20.00;40.10
48579;DHT22;34357;51.948;6.132;2023-05-29T13:08:03;20.00;40.30
48579;DHT22;34357;51.948;6.132;2023-05-29T13:10:31;20.10;38.10
48579;DHT22;34357;51.948;6.132;2023-05-29T13:12:59;20.00;40.50
48579;DHT22;34357;51.948;6.132;2023-05-29T13:15:25;20.20;38.70
48579;DHT22;34357;51.948;6.132;2023-05-29T13:17:54;20.20;39.40
48579;DHT22;34357;51.948;6.132;2023-05-29T13:20:20;20.20;40.90
48579;DHT22;34357;51.948;6.132;2023-05-29T13:22:47;20.20;40.30
48579;DHT22;34357;51.948;6.132;2023-05-29T13:25:14;20.40;38.30
48579;DHT22;34357;51.948;6.132;2023-05-29T13:27:42;20.30;38.30
48579;DHT22;34357;51.948;6.132;2023-05-29T13:30:08;20.20;38.30
48579;DHT22;34357;51.948;6.132;2023-05-29T13:32:35;20.20;38.20
48579;DHT22;34357;51.948;6.132;2023-05-29T13:35:01;20.30;38.00
48579;DHT22;34357;51.948;6.132;2023-05-29T13:37:27;20.20;38.10
48579;DHT22;34357;51.948;6.132;2023-05-29T13:39:53;20.50;38.50
48579;DHT22;34357;51.948;6.132;2023-05-29T13:42:19;20.50;39.20
48579;DHT22;34357;51.948;6.132;2023-05-29T13:44:46;20.50;39.00
48579;DHT22;34357;51.948;6.132;2023-05-29T13:47:12;20.80;38.60
48579;DHT22;34357;51.948;6.132;2023-05-29T13:49:38;20.60;38.50
48579;DHT22;34357;51.948;6.132;2023-05-29T13:52:04;20.30;37.60
48579;DHT22;34357;51.948;6.132;2023-05-29T13:54:30;20.30;39.30
48579;DHT22;34357;51.948;6.132;2023-05-29T13:56:57;20.20;40.80
48579;DHT22;34357;51.948;6.132;2023-05-29T13:59:24;20.40;39.80
48579;DHT22;34357;51.948;6.132;2023-05-29T14:01:50;20.40;41.10
48579;DHT22;34357;51.948;6.132;2023-05-29T14:04:16;20.50;40.70
48579;DHT22;34357;51.948;6.132;2023-05-29T14:06:42;20.40;40.10
48579;DHT22;34357;51.948;6.132;2023-05-29T14:09:07;20.40;41.30
48579;DHT22;34357;51.948;6.132;2023-05-29T14:11:36;20.60;40.40
48579;DHT22;34357;51.948;6.132;2023-05-29T14:14:06;20.60;40.60
48579;DHT22;34357;51.948;6.132;2023-05-29T14:16:32;20.50;40.70
48579;DHT22;34357;51.948;6.132;2023-05-29T14:18:59;20.20;41.40
48579;DHT22;34357;51.948;6.132;2023-05-29T14:21:25;20.40;40.00
48579;DHT22;34357;51.948;6.132;2023-05-29T14:23:51;20.40;40.40
48579;DHT22;34357;51.948;6.132;2023-05-29T14:26:17;20.50;40.50
48579;DHT22;34357;51.948;6.132;2023-05-29T14:28:43;20.40;40.90
48579;DHT22;34357;51.948;6.132;2023-05-29T14:31:09;20.40;40.90
48579;DHT22;34357;51.948;6.132;2023-05-29T14:33:34;20.50;41.20
48579;DHT22;34357;51.948;6.132;2023-05-29T14:36:02;20.30;42.00
48579;DHT22;34357;51.948;6.132;2023-05-29T14:38:28;20.30;40.80
48579;DHT22;34357;51.948;6.132;2023-05-29T14:40:54;20.20;41.30
48579;DHT22;34357;51.948;6.132;2023-05-29T14:43:20;20.20;40.00
48579;DHT22;34357;51.948;6.132;2023-05-29T14:45:45;20.30;39.40
48579;DHT22;34357;51.948;6.132;2023-05-29T14:48:11;20.30;40.10
48579;DHT22;34357;51.948;6.132;2023-05-29T14:50:37;20.20;40.70
48579;DHT22;34357;51.948;6.132;2023-05-29T14:53:03;20.20;40.70
48579;DHT22;34357;51.948;6.132;2023-05-29T14:55:29;20.20;40.10
48579;DHT22;34357;51.948;6.132;2023-05-29T14:57:57;20.40;39.30
48579;DHT22;34357;51.948;6.132;2023-05-29T15:00:23;20.30;40.10
48579;DHT22;34357;51.948;6.132;2023-05-29T15:02:49;20.30;40.10
48579;DHT22;34357;51.948;6.132;2023-05-29T15:05:14;20.30;39.50
48579;DHT22;34357;51.948;6.132;2023-05-29T15:07:40;20.40;40.50
48579;DHT22;34357;51.948;6.132;2023-05-29T15:10:06;20.20;38.70
48579;DHT22;34357;51.948;6.132;2023-05-29T15:12:32;20.10;39.10
48579;DHT22;34357;51.948;6.132;2023-05-29T15:14:58;20.10;39.70
48579;DHT22;34357;51.948;6.132;2023-05-29T15:17:24;20.20;39.70
48579;DHT22;34357;51.948;6.132;2023-05-29T15:19:50;20.00;39.60
48579;DHT22;34357;51.948;6.132;2023-05-29T15:22:15;20.00;39.40
48579;DHT22;34357;51.948;6.132;2023-05-29T15:24:41;19.90;38.20
48579;DHT22;34357;51.948;6.132;2023-05-29T15:27:07;19.90;37.80
48579;DHT22;34357;51.948;6.132;2023-05-29T15:29:34;19.90;36.80
48579;DHT22;34357;51.948;6.132;2023-05-29T15:32:01;19.90;37.20
48579;DHT22;34357;51.948;6.132;2023-05-29T15:34:26;19.90;38.50
48579;DHT22;34357;51.948;6.132;2023-05-29T15:36:52;19.80;36.90
48579;DHT22;34357;51.948;6.132;2023-05-29T15:39:18;19.80;36.10
48579;DHT22;34357;51.948;6.132;2023-05-29T15:41:44;19.80;36.20
48579;DHT22;34357;51.948;6.132;2023-05-29T15:44:10;19.90;36.20
48579;DHT22;34357;51.948;6.132;2023-05-29T15:46:35;19.90;36.60
48579;DHT22;34357;51.948;6.132;2023-05-29T15:49:01;19.80;37.60
48579;DHT22;34357;51.948;6.132;2023-05-29T15:51:27;19.80;37.70
48579;DHT22;34357;51.948;6.132;2023-05-29T15:53:56;19.80;37.30
48579;DHT22;34357;51.948;6.132;2023-05-29T15:56:23;19.80;37.80
48579;DHT22;34357;51.948;6.132;2023-05-29T15:58:52;19.80;35.90
48579;DHT22;34357;51.948;6.132;2023-05-29T16:01:18;19.80;36.90
48579;DHT22;34357;51.948;6.132;2023-05-29T16:03:44;19.70;35.50
48579;DHT22;34357;51.948;6.132;2023-05-29T16:06:10;19.70;36.40
48579;DHT22;34357;51.948;6.132;2023-05-29T16:08:35;19.60;36.30